Time;durP1;ratioP1;P1;durP2;ratioP2;P2;SDS_P1;SDS_P2;PMS_P1;PMS_P2;Temp;Humidity;BMP_temperature;BMP_pressure;BME280_temperature;BME280_humidity;BME280_pressure;Samples;Min_cycle;Max_cycle;Signal;HPM_P1;HPM_P2
2023/02/28 00:00:37;;;;;;;;;;;-1.10;99.90;;;;;;4873757;29;20000;-64
2023/02/28 00:03:09;;;;;;;;;;;-1.10;99.90;;;;;;4872187;29;19928;-64
2023/02/28 00:05:41;;;;;;;;;;;-1.10;99.90;;;;;;4886151;29;20520;-64
2023/02/28 00:08:13;;;;;;;;;;;-1.10;99.90;;;;;;4865124;29;19928;-65
2023/02/28 00:10:40;;;;;;;;;;;-1.00;99.90;;;;;;4877150;29;19936;-69
2023/02/28 00:13:13;;;;;;;;;;;-1.00;99.90;;;;;;4867250;29;19928;-64
2023/02/28 00:15:45;;;;;;;;;;;-1.00;99.90;;;;;;4862837;29;19932;-65
2023/02/28 00:18:17;;;;;;;;;;;-1.00;99.90;;;;;;4873094;29;19951;-65
2023/02/28 00:20:49;;;;;;;;;;;-1.00;99.90;;;;;;4871221;29;19932;-64
2023/02/28 00:23:16;;;;;;;;;;;-1.00;99.90;;;;;;4869885;29;19928;-65
2023/02/28 00:25:48;;;;;;;;;;;-0.90;99.90;;;;;;4868781;29;20031;-65
2023/02/28 00:28:21;;;;;;;;;;;-1.00;99.90;;;;;;4870478;29;19932;-65
2023/02/28 00:30:54;;;;;;;;;;;-1.00;99.90;;;;;;4866819;29;19928;-65
2023/02/28 00:33:26;;;;;;;;;;;-1.00;99.90;;;;;;4874401;29;19934;-65
2023/02/28 00:36:03;;;;;;;;;;;-1.00;99.90;;;;;;4868293;29;19939;-65
2023/02/28 00:38:35;;;;;;;;;;;-1.00;99.90;;;;;;4873631;29;19932;-65
2023/02/28 00:41:08;;;;;;;;;;;-1.00;99.90;;;;;;4873819;29;19976;-65
2023/02/28 00:43:36;;;;;;;;;;;-1.00;99.90;;;;;;4871689;29;20018;-66
2023/02/28 00:46:10;;;;;;;;;;;-1.00;99.90;;;;;;4872461;29;19929;-65
2023/02/28 00:48:42;;;;;;;;;;;-1.00;99.90;;;;;;4874650;29;20287;-65
2023/02/28 00:51:13;;;;;;;;;;;-0.90;99.90;;;;;;4858254;29;20027;-65
2023/02/28 00:53:45;;;;;;;;;;;-1.00;99.90;;;;;;4865499;29;19992;-65
2023/02/28 00:56:17;;;;;;;;;;;-1.00;99.90;;;;;;4874528;29;19928;-65
2023/02/28 00:58:46;;;;;;;;;;;-1.00;99.90;;;;;;4867564;29;19935;-65
2023/02/28 01:01:18;;;;;;;;;;;-1.00;99.90;;;;;;4858286;29;19929;-65
2023/02/28 01:03:50;;;;;;;;;;;-1.00;99.90;;;;;;4873554;29;19932;-65
2023/02/28 01:06:22;;;;;;;;;;;-1.00;99.90;;;;;;4885094;29;20440;-65
2023/02/28 01:08:53;;;;;;;;;;;-1.00;99.90;;;;;;4872938;29;19934;-65
2023/02/28 01:11:25;;;;;;;;;;;-1.00;99.90;;;;;;4874596;29;19992;-65
2023/02/28 01:13:58;;;;;;;;;;;-1.00;99.90;;;;;;4866661;29;20389;-65
2023/02/28 01:16:29;;;;;;;;;;;-1.00;99.90;;;;;;4858191;29;20004;-65
2023/02/28 01:19:02;;;;;;;;;;;-1.00;99.90;;;;;;4864877;29;19932;-65
2023/02/28 01:21:34;;;;;;;;;;;-0.90;99.90;;;;;;4866317;29;20389;-65
2023/02/28 01:24:07;;;;;;;;;;;-1.00;99.90;;;;;;4875547;29;19933;-65
2023/02/28 01:26:38;;;;;;;;;;;-1.00;99.90;;;;;;4875803;29;19928;-65
2023/02/28 01:29:10;;;;;;;;;;;-1.00;99.90;;;;;;4871563;29;19932;-65
2023/02/28 01:31:42;;;;;;;;;;;-1.00;99.90;;;;;;4875248;29;19936;-65
2023/02/28 01:34:08;;;;;;;;;;;-1.00;99.90;;;;;;4873486;29;19933;-65
2023/02/28 01:36:40;;;;;;;;;;;-1.00;99.90;;;;;;4883237;29;19935;-65
2023/02/28 01:39:12;;;;;;;;;;;-1.00;99.90;;;;;;4873160;29;19954;-65
2023/02/28 01:41:44;;;;;;;;;;;-1.00;99.90;;;;;;4875750;29;19932;-65
2023/02/28 01:44:36;;;;;;;;;;;-1.00;99.90;;;;;;4868179;29;19935;-65
2023/02/28 01:47:08;;;;;;;;;;;-1.00;99.90;;;;;;4847638;29;19927;-64
2023/02/28 01:49:40;;;;;;;;;;;-1.00;99.90;;;;;;4875760;29;19960;-65
2023/02/28 01:52:17;;;;;;;;;;;-1.00;99.90;;;;;;4865815;29;19939;-64
2023/02/28 01:54:51;;;;;;;;;;;-1.00;99.90;;;;;;4867614;29;19927;-65
2023/02/28 01:57:25;;;;;;;;;;;-1.10;99.90;;;;;;4874571;29;19935;-65
2023/02/28 02:00:04;;;;;;;;;;;-1.10;99.90;;;;;;4873514;29;19928;-65
2023/02/28 02:02:38;;;;;;;;;;;-1.10;99.90;;;;;;4871282;29;19928;-65
2023/02/28 02:05:13;;;;;;;;;;;-1.10;99.90;;;;;;4863838;29;19939;-65
2023/02/28 02:07:46;;;;;;;;;;;-1.10;99.90;;;;;;4880210;29;19951;-65
2023/02/28 02:10:41;;;;;;;;;;;-1.10;99.90;;;;;;4872812;29;19985;-65
2023/02/28 02:13:19;;;;;;;;;;;-1.10;99.90;;;;;;4866465;29;19928;-65
2023/02/28 02:15:54;;;;;;;;;;;-1.00;99.90;;;;;;4871847;29;19932;-64
2023/02/28 02:18:39;;;;;;;;;;;-1.10;99.90;;;;;;4870658;29;19932;-64
2023/02/28 02:21:10;;;;;;;;;;;-1.10;99.90;;;;;;4865924;29;19935;-65
2023/02/28 02:23:56;;;;;;;;;;;-1.20;99.90;;;;;;4852047;29;20391;-66
2023/02/28 02:26:22;;;;;;;;;;;-1.10;99.90;;;;;;4859032;29;19932;-65
2023/02/28 02:28:54;;;;;;;;;;;-1.10;99.90;;;;;;4874211;29;20354;-65
2023/02/28 02:31:47;;;;;;;;;;;-1.20;99.90;;;;;;4875425;29;19975;-65
2023/02/28 02:34:18;;;;;;;;;;;-1.20;99.90;;;;;;4871163;29;19984;-64
2023/02/28 02:36:56;;;;;;;;;;;-1.10;99.90;;;;;;4887488;29;19935;-65
2023/02/28 02:39:34;;;;;;;;;;;-1.20;99.90;;;;;;4869941;29;20404;-65
2023/02/28 02:42:12;;;;;;;;;;;-1.20;99.90;;;;;;4875698;29;19932;-65
2023/02/28 02:44:55;;;;;;;;;;;-1.20;99.90;;;;;;4875857;29;19956;-65
2023/02/28 02:47:29;;;;;;;;;;;-1.20;99.90;;;;;;4865391;29;20517;-65
2023/02/28 02:50:05;;;;;;;;;;;-1.20;99.90;;;;;;4873886;29;19942;-66
2023/02/28 02:52:39;;;;;;;;;;;-1.20;99.90;;;;;;4874633;29;19928;-65
2023/02/28 02:55:12;;;;;;;;;;;-1.20;99.90;;;;;;4865044;29;19928;-65
2023/02/28 02:57:47;;;;;;;;;;;-1.20;99.90;;;;;;4877179;29;19971;-65
2023/02/28 03:00:23;;;;;;;;;;;-1.30;99.90;;;;;;4886176;29;19928;-65
2023/02/28 03:02:55;;;;;;;;;;;-1.30;99.90;;;;;;4868616;29;19984;-66
2023/02/28 03:05:31;;;;;;;;;;;-1.30;99.90;;;;;;4865988;29;19927;-65
2023/02/28 03:08:03;;;;;;;;;;;-1.20;99.90;;;;;;4852043;29;19932;-65
2023/02/28 03:10:39;;;;;;;;;;;-1.30;99.90;;;;;;4865717;29;19929;-67
2023/02/28 03:13:34;;;;;;;;;;;-1.30;99.90;;;;;;4878516;29;19935;-65
2023/02/28 03:16:07;;;;;;;;;;;-1.30;99.90;;;;;;4873484;29;19938;-65
2023/02/28 03:18:48;;;;;;;;;;;-1.30;99.90;;;;;;4855757;29;19935;-65
2023/02/28 03:21:35;;;;;;;;;;;-1.20;99.90;;;;;;4858674;29;19928;-65
2023/02/28 03:24:15;;;;;;;;;;;-1.30;99.90;;;;;;4871171;29;19932;-65
2023/02/28 03:26:52;;;;;;;;;;;-1.30;99.90;;;;;;4875905;29;19954;-69
2023/02/28 03:29:28;;;;;;;;;;;-1.30;99.90;;;;;;4866893;29;19932;-66
2023/02/28 03:32:05;;;;;;;;;;;-1.30;99.90;;;;;;4868544;29;19927;-65
2023/02/28 03:34:41;;;;;;;;;;;-1.30;99.90;;;;;;4865344;29;19971;-66
2023/02/28 03:37:15;;;;;;;;;;;-1.30;99.90;;;;;;4873258;29;19980;-65
2023/02/28 03:39:50;;;;;;;;;;;-1.30;99.90;;;;;;4875877;29;20377;-65
2023/02/28 03:42:24;;;;;;;;;;;-1.30;99.90;;;;;;4869914;29;19988;-65
2023/02/28 03:45:00;;;;;;;;;;;-1.20;99.90;;;;;;4870322;29;20349;-65
2023/02/28 03:47:38;;;;;;;;;;;-1.20;99.90;;;;;;4870430;29;20548;-65
2023/02/28 03:50:16;;;;;;;;;;;-1.20;99.90;;;;;;4859356;29;20016;-65
2023/02/28 03:53:00;;;;;;;;;;;-1.30;99.90;;;;;;4883431;29;20397;-67
2023/02/28 03:55:35;;;;;;;;;;;-1.30;99.90;;;;;;4865004;29;20022;-65
2023/02/28 03:58:19;;;;;;;;;;;-1.30;99.90;;;;;;4864586;29;19932;-65
2023/02/28 04:01:07;;;;;;;;;;;-1.30;99.90;;;;;;4872609;29;20459;-65
2023/02/28 04:03:39;;;;;;;;;;;-1.30;99.90;;;;;;4886709;29;19932;-65
2023/02/28 04:06:16;;;;;;;;;;;-1.30;99.90;;;;;;4867036;29;19932;-65
2023/02/28 04:08:49;;;;;;;;;;;-1.20;99.90;;;;;;4869836;29;19927;-65
2023/02/28 04:11:15;;;;;;;;;;;-1.30;99.90;;;;;;4872497;29;19951;-65
2023/02/28 04:13:48;;;;;;;;;;;-1.30;99.90;;;;;;4863460;29;19939;-65
2023/02/28 04:16:15;;;;;;;;;;;-1.30;99.90;;;;;;4870608;29;19932;-65
2023/02/28 04:18:47;;;;;;;;;;;-1.30;99.90;;;;;;4849372;29;19928;-68
2023/02/28 04:21:22;;;;;;;;;;;-1.30;99.90;;;;;;4865904;29;19939;-65
2023/02/28 04:23:53;;;;;;;;;;;-1.30;99.90;;;;;;4886854;29;19935;-65
2023/02/28 04:26:28;;;;;;;;;;;-1.30;99.90;;;;;;4871779;29;19992;-65
2023/02/28 04:29:02;;;;;;;;;;;-1.30;99.90;;;;;;4876492;29;19932;-65
2023/02/28 04:31:29;;;;;;;;;;;-1.30;99.90;;;;;;4868930;29;19927;-67
2023/02/28 04:34:01;;;;;;;;;;;-1.30;99.90;;;;;;4868005;29;19932;-65
2023/02/28 04:36:33;;;;;;;;;;;-1.30;99.90;;;;;;4874007;29;19984;-65
2023/02/28 04:39:05;;;;;;;;;;;-1.30;99.90;;;;;;4871525;29;19927;-64
2023/02/28 04:41:31;;;;;;;;;;;-1.30;99.90;;;;;;4874127;29;20440;-66
2023/02/28 04:44:03;;;;;;;;;;;-1.30;99.90;;;;;;4874129;29;19938;-65
2023/02/28 04:46:35;;;;;;;;;;;-1.30;99.90;;;;;;4860323;29;19932;-65
2023/02/28 04:49:08;;;;;;;;;;;-1.30;99.90;;;;;;4871070;29;19928;-65
2023/02/28 04:51:40;;;;;;;;;;;-1.30;99.90;;;;;;4866238;29;19935;-66
2023/02/28 04:54:13;;;;;;;;;;;-1.20;99.90;;;;;;4864872;29;20350;-66
2023/02/28 04:56:44;;;;;;;;;;;-1.20;99.90;;;;;;4867601;29;20386;-64
2023/02/28 04:59:16;;;;;;;;;;;-1.20;99.90;;;;;;4863399;29;19932;-65
2023/02/28 05:01:48;;;;;;;;;;;-1.20;99.90;;;;;;4871895;29;19976;-65
2023/02/28 05:04:20;;;;;;;;;;;-1.20;99.90;;;;;;4872969;29;19928;-66
2023/02/28 05:06:52;;;;;;;;;;;-1.20;99.90;;;;;;4876286;29;19928;-65
2023/02/28 05:09:19;;;;;;;;;;;-1.20;99.90;;;;;;4875434;29;19979;-65
2023/02/28 05:11:46;;;;;;;;;;;-1.20;99.90;;;;;;4875052;29;19942;-65
2023/02/28 05:14:17;;;;;;;;;;;-1.30;99.90;;;;;;4867852;29;19993;-65
2023/02/28 05:16:44;;;;;;;;;;;-1.30;99.90;;;;;;4876832;29;19935;-67
2023/02/28 05:19:16;;;;;;;;;;;-1.20;99.90;;;;;;4874421;29;19928;-66
2023/02/28 05:21:52;;;;;;;;;;;-1.20;99.90;;;;;;4871901;29;19936;-65
2023/02/28 05:24:23;;;;;;;;;;;-1.30;99.90;;;;;;4870181;29;19936;-66
2023/02/28 05:26:55;;;;;;;;;;;-1.40;99.90;;;;;;4864871;29;19928;-65
2023/02/28 05:29:27;;;;;;;;;;;-1.40;99.90;;;;;;4872354;29;19928;-65
2023/02/28 05:31:59;;;;;;;;;;;-1.40;99.90;;;;;;4870579;29;19979;-66
2023/02/28 05:34:31;;;;;;;;;;;-1.30;99.90;;;;;;4873553;29;19932;-65
2023/02/28 05:37:02;;;;;;;;;;;-1.40;99.90;;;;;;4874944;29;19935;-65
2023/02/28 05:39:34;;;;;;;;;;;-1.40;99.90;;;;;;4866834;29;19939;-64
2023/02/28 05:42:06;;;;;;;;;;;-1.40;99.90;;;;;;4868306;29;20313;-66
2023/02/28 05:44:33;;;;;;;;;;;-1.30;99.90;;;;;;4868023;29;19943;-66
2023/02/28 05:47:00;;;;;;;;;;;-1.30;99.90;;;;;;4869209;29;19928;-66
2023/02/28 05:49:32;;;;;;;;;;;-1.30;99.90;;;;;;4870514;29;19935;-65
2023/02/28 05:52:04;;;;;;;;;;;-1.30;99.90;;;;;;4855789;29;20316;-65
2023/02/28 05:54:35;;;;;;;;;;;-1.30;99.90;;;;;;4865702;29;19932;-65
2023/02/28 05:57:07;;;;;;;;;;;-1.30;99.90;;;;;;4867971;29;20026;-65
2023/02/28 05:59:39;;;;;;;;;;;-1.30;99.90;;;;;;4861932;29;20548;-64
2023/02/28 06:02:10;;;;;;;;;;;-1.30;99.90;;;;;;4873014;29;20391;-65
2023/02/28 06:04:44;;;;;;;;;;;-1.30;99.90;;;;;;4870352;29;19931;-64
2023/02/28 06:07:17;;;;;;;;;;;-1.30;99.90;;;;;;4869794;29;19984;-65
2023/02/28 06:09:49;;;;;;;;;;;-1.40;99.90;;;;;;4874193;29;19947;-65
2023/02/28 06:12:20;;;;;;;;;;;-1.40;99.90;;;;;;4871078;29;19927;-65
2023/02/28 06:14:47;;;;;;;;;;;-1.40;99.90;;;;;;4875000;29;19940;-64
2023/02/28 06:17:19;;;;;;;;;;;-1.40;99.90;;;;;;4872375;29;19953;-65
2023/02/28 06:19:50;;;;;;;;;;;-1.30;99.90;;;;;;4875188;29;19928;-65
2023/02/28 06:22:23;;;;;;;;;;;-1.40;99.90;;;;;;4867833;29;19932;-66
2023/02/28 06:24:56;;;;;;;;;;;-1.40;99.90;;;;;;4871139;29;20444;-65
2023/02/28 06:27:28;;;;;;;;;;;-1.30;99.90;;;;;;4861252;29;19980;-65
2023/02/28 06:30:00;;;;;;;;;;;-1.30;99.90;;;;;;4866211;29;19988;-65
2023/02/28 06:32:26;;;;;;;;;;;-1.30;99.90;;;;;;4875596;29;19928;-65
2023/02/28 06:34:53;;;;;;;;;;;-1.30;99.90;;;;;;4873181;29;19927;-65
2023/02/28 06:37:28;;;;;;;;;;;-1.30;99.90;;;;;;4872807;29;19935;-65
2023/02/28 06:40:00;;;;;;;;;;;-1.30;99.90;;;;;;4859710;29;19985;-65
2023/02/28 06:42:32;;;;;;;;;;;-1.20;99.90;;;;;;4872434;29;19977;-65
2023/02/28 06:44:58;;;;;;;;;;;-1.20;99.90;;;;;;4877580;29;19928;-64
2023/02/28 06:47:30;;;;;;;;;;;-1.30;99.90;;;;;;4874878;29;19932;-64
2023/02/28 06:50:03;;;;;;;;;;;-1.30;99.90;;;;;;4874489;29;19951;-65
2023/02/28 06:52:38;;;;;;;;;;;-1.30;99.90;;;;;;4874405;29;19936;-65
2023/02/28 06:55:10;;;;;;;;;;;-1.00;99.90;;;;;;4877220;29;19931;-65
2023/02/28 06:57:42;;;;;;;;;;;-1.00;99.90;;;;;;4875727;29;19935;-64
2023/02/28 07:00:13;;;;;;;;;;;-1.00;99.90;;;;;;4875581;29;19931;-68
2023/02/28 07:02:45;;;;;;;;;;;-1.00;99.90;;;;;;4876706;29;20038;-64
2023/02/28 07:05:17;;;;;;;;;;;-1.00;99.90;;;;;;4873736;29;20002;-65
2023/02/28 07:07:50;;;;;;;;;;;-1.10;99.90;;;;;;4878304;29;19954;-64
2023/02/28 07:10:22;;;;;;;;;;;-1.10;99.90;;;;;;4871445;29;19928;-64
2023/02/28 07:12:54;;;;;;;;;;;-1.20;99.90;;;;;;4874803;29;20406;-64
2023/02/28 07:15:25;;;;;;;;;;;-1.10;99.90;;;;;;4880712;29;19936;-65
2023/02/28 07:17:57;;;;;;;;;;;-1.10;99.90;;;;;;4875168;29;19939;-65
2023/02/28 07:20:29;;;;;;;;;;;-1.20;99.90;;;;;;4871857;29;19939;-65
2023/02/28 07:23:01;;;;;;;;;;;-1.20;99.90;;;;;;4878507;29;19928;-65
2023/02/28 07:25:32;;;;;;;;;;;-1.30;99.90;;;;;;4852508;29;19977;-65
2023/02/28 07:28:04;;;;;;;;;;;-1.20;99.90;;;;;;4877967;29;20357;-65
2023/02/28 07:30:36;;;;;;;;;;;-1.20;99.90;;;;;;4883573;29;19932;-66
2023/02/28 07:33:08;;;;;;;;;;;-1.20;99.90;;;;;;4859953;29;19927;-65
2023/02/28 07:35:40;;;;;;;;;;;-1.30;99.90;;;;;;4872167;29;19963;-64
2023/02/28 07:38:13;;;;;;;;;;;-1.20;99.90;;;;;;4876793;29;19967;-64
2023/02/28 07:40:45;;;;;;;;;;;-1.30;99.90;;;;;;4873034;29;19928;-64
2023/02/28 07:43:16;;;;;;;;;;;-1.30;99.90;;;;;;4877210;29;19932;-64
2023/02/28 07:45:43;;;;;;;;;;;-1.30;99.90;;;;;;4871287;29;19928;-65
2023/02/28 07:48:15;;;;;;;;;;;-1.20;99.90;;;;;;4860092;29;19935;-64
2023/02/28 07:50:42;;;;;;;;;;;-1.20;99.90;;;;;;4875739;29;19929;-67
2023/02/28 07:53:14;;;;;;;;;;;-1.10;99.90;;;;;;4874078;29;19928;-64
2023/02/28 07:55:46;;;;;;;;;;;-1.10;99.90;;;;;;4875096;29;19988;-64
2023/02/28 07:58:18;;;;;;;;;;;-1.00;99.90;;;;;;4869175;29;20012;-65
2023/02/28 08:00:50;;;;;;;;;;;-1.00;99.90;;;;;;4865447;29;19935;-64
2023/02/28 08:03:22;;;;;;;;;;;-0.90;99.90;;;;;;4869685;29;19927;-66
2023/02/28 08:05:54;;;;;;;;;;;-0.90;99.90;;;;;;4876857;29;20464;-65
2023/02/28 08:08:29;;;;;;;;;;;-0.90;99.90;;;;;;4878342;29;19939;-69
2023/02/28 08:10:57;;;;;;;;;;;-0.80;99.90;;;;;;4871214;29;19928;-65
2023/02/28 08:13:29;;;;;;;;;;;-0.80;99.90;;;;;;4870570;29;20417;-65
2023/02/28 08:16:01;;;;;;;;;;;-0.80;99.90;;;;;;4875271;29;19934;-65
2023/02/28 08:18:33;;;;;;;;;;;-0.80;99.90;;;;;;4869612;29;19932;-65
2023/02/28 08:21:05;;;;;;;;;;;-0.80;99.90;;;;;;4875867;29;19935;-64
2023/02/28 08:23:37;;;;;;;;;;;-0.70;99.90;;;;;;4863260;29;19932;-65
2023/02/28 08:26:09;;;;;;;;;;;-0.70;99.90;;;;;;4876936;29;20398;-64
2023/02/28 08:28:41;;;;;;;;;;;-0.70;99.90;;;;;;4876941;29;20354;-65
2023/02/28 08:31:14;;;;;;;;;;;-0.70;99.90;;;;;;4870414;29;20014;-65
2023/02/28 08:33:49;;;;;;;;;;;-0.70;99.90;;;;;;4871679;29;19978;-65
2023/02/28 08:36:21;;;;;;;;;;;-0.70;99.90;;;;;;4872425;29;20361;-65
2023/02/28 08:38:53;;;;;;;;;;;-0.70;99.90;;;;;;4861101;29;21339;-66
2023/02/28 08:41:25;;;;;;;;;;;-0.60;99.90;;;;;;4872602;29;20412;-65
2023/02/28 08:43:57;;;;;;;;;;;-0.60;99.90;;;;;;4870215;29;19951;-65
2023/02/28 08:46:28;;;;;;;;;;;-0.40;99.90;;;;;;4862348;29;20743;-65
2023/02/28 08:49:01;;;;;;;;;;;-0.40;99.90;;;;;;4875957;29;19928;-65
2023/02/28 08:51:33;;;;;;;;;;;-0.40;99.90;;;;;;4862669;29;19932;-65
2023/02/28 08:54:05;;;;;;;;;;;-0.30;99.90;;;;;;4869891;29;20038;-68
2023/02/28 08:56:37;;;;;;;;;;;-0.30;99.90;;;;;;4855016;29;19932;-65
2023/02/28 08:59:03;;;;;;;;;;;-0.20;99.90;;;;;;4870145;29;20314;-65
2023/02/28 09:01:36;;;;;;;;;;;-0.20;99.90;;;;;;4867338;29;20010;-64
2023/02/28 09:04:09;;;;;;;;;;;-0.30;99.90;;;;;;4865861;29;21314;-68
2023/02/28 09:06:41;;;;;;;;;;;-0.30;99.90;;;;;;4869259;29;20362;-65
2023/02/28 09:09:13;;;;;;;;;;;-0.30;99.90;;;;;;4866263;29;19934;-65
2023/02/28 09:11:45;;;;;;;;;;;-0.30;99.90;;;;;;4871325;29;19980;-65
2023/02/28 09:14:17;;;;;;;;;;;-0.30;99.90;;;;;;4870524;29;19935;-65
2023/02/28 09:16:49;;;;;;;;;;;-0.20;99.90;;;;;;4872540;29;19932;-65
2023/02/28 09:19:22;;;;;;;;;;;-0.20;99.90;;;;;;4874601;29;19951;-65
2023/02/28 09:21:53;;;;;;;;;;;-0.20;99.90;;;;;;4874014;29;19931;-66
2023/02/28 09:24:20;;;;;;;;;;;-0.20;99.90;;;;;;4865511;29;19991;-65
2023/02/28 09:26:52;;;;;;;;;;;-0.20;99.90;;;;;;4861040;29;19932;-65
2023/02/28 09:29:24;;;;;;;;;;;-0.10;99.90;;;;;;4873579;29;19976;-65
2023/02/28 09:32:00;;;;;;;;;;;-0.10;99.90;;;;;;4868657;29;19934;-65
2023/02/28 09:34:31;;;;;;;;;;;-0.10;99.90;;;;;;4867775;29;19928;-65
2023/02/28 09:37:03;;;;;;;;;;;0.00;99.90;;;;;;4868890;29;19967;-65
2023/02/28 09:39:35;;;;;;;;;;;0.00;99.90;;;;;;4872077;29;19928;-65
2023/02/28 09:42:17;;;;;;;;;;;0.10;99.90;;;;;;4874525;29;20023;-65
2023/02/28 09:44:50;;;;;;;;;;;0.20;99.90;;;;;;4887485;29;19935;-65
2023/02/28 09:47:29;;;;;;;;;;;0.30;99.90;;;;;;4866509;29;20019;-65
2023/02/28 09:50:13;;;;;;;;;;;0.30;99.90;;;;;;4866308;29;19928;-65
2023/02/28 09:52:48;;;;;;;;;;;0.40;99.90;;;;;;4855953;29;19935;-65
2023/02/28 09:55:20;;;;;;;;;;;0.40;99.90;;;;;;4876597;29;19929;-65
2023/02/28 09:57:52;;;;;;;;;;;0.50;99.90;;;;;;4867594;29;19981;-65
2023/02/28 10:00:28;;;;;;;;;;;0.60;99.90;;;;;;4872952;29;19928;-65
2023/02/28 10:03:16;;;;;;;;;;;0.70;99.90;;;;;;4877692;29;19928;-65
2023/02/28 10:05:48;;;;;;;;;;;0.80;99.90;;;;;;4875776;29;19936;-65
2023/02/28 10:08:25;;;;;;;;;;;0.80;99.90;;;;;;4878330;29;20385;-65
2023/02/28 10:11:06;;;;;;;;;;;0.90;99.90;;;;;;4879077;29;19935;-65
2023/02/28 10:13:38;;;;;;;;;;;1.00;99.90;;;;;;4868774;29;19977;-65
2023/02/28 10:16:13;;;;;;;;;;;1.10;99.90;;;;;;4863685;29;19935;-65
2023/02/28 10:19:08;;;;;;;;;;;1.10;99.90;;;;;;4878641;29;19929;-65
2023/02/28 10:21:48;;;;;;;;;;;1.20;99.90;;;;;;4869493;29;19932;-65
2023/02/28 10:24:27;;;;;;;;;;;1.30;99.90;;;;;;4873735;29;19988;-64
2023/02/28 10:27:11;;;;;;;;;;;1.40;99.90;;;;;;4873645;29;20000;-64
2023/02/28 10:29:40;;;;;;;;;;;1.40;99.90;;;;;;4877756;29;20018;-65
2023/02/28 10:32:19;;;;;;;;;;;1.30;99.90;;;;;;4868443;29;20431;-64
2023/02/28 10:34:53;;;;;;;;;;;1.40;99.90;;;;;;4861230;29;19936;-64
2023/02/28 10:37:25;;;;;;;;;;;1.30;99.90;;;;;;4877445;29;19928;-64
2023/02/28 10:39:57;;;;;;;;;;;1.30;99.90;;;;;;4878987;29;19963;-64
2023/02/28 10:42:30;;;;;;;;;;;1.30;99.90;;;;;;4878820;29;20385;-64
2023/02/28 10:45:12;;;;;;;;;;;1.40;99.90;;;;;;4869063;29;19932;-65
2023/02/28 10:47:48;;;;;;;;;;;1.40;99.90;;;;;;4874434;29;19951;-65
2023/02/28 10:50:43;;;;;;;;;;;1.50;99.90;;;;;;4877989;29;19932;-65
2023/02/28 10:53:09;;;;;;;;;;;1.60;99.90;;;;;;4875913;29;20023;-65
2023/02/28 10:55:41;;;;;;;;;;;1.80;99.90;;;;;;4876892;29;19928;-65
2023/02/28 10:58:38;;;;;;;;;;;1.90;99.90;;;;;;4878220;29;20027;-65
2023/02/28 11:01:14;;;;;;;;;;;2.00;99.90;;;;;;4900387;29;19940;-64
2023/02/28 11:03:46;;;;;;;;;;;2.10;99.90;;;;;;4865675;29;20019;-65
2023/02/28 11:06:18;;;;;;;;;;;2.20;99.90;;;;;;4868831;29;20405;-64
2023/02/28 11:08:54;;;;;;;;;;;2.10;99.90;;;;;;4876844;29;19954;-64
2023/02/28 11:11:27;;;;;;;;;;;2.10;99.90;;;;;;4877406;29;19931;-64
2023/02/28 11:14:04;;;;;;;;;;;2.20;99.90;;;;;;4877262;29;19928;-64
2023/02/28 11:16:37;;;;;;;;;;;2.20;99.90;;;;;;4867992;29;19932;-65
2023/02/28 11:19:17;;;;;;;;;;;2.10;99.90;;;;;;4886277;29;19932;-65
2023/02/28 11:21:56;;;;;;;;;;;2.10;99.90;;;;;;4875738;29;21200;-65
2023/02/28 11:24:30;;;;;;;;;;;2.20;99.90;;;;;;4846571;29;20405;-65
2023/02/28 11:27:01;;;;;;;;;;;2.30;99.90;;;;;;4876104;29;19946;-65
2023/02/28 11:29:34;;;;;;;;;;;2.40;99.90;;;;;;4875760;29;19931;-66
2023/02/28 11:32:01;;;;;;;;;;;2.50;99.90;;;;;;4873433;29;19928;-65
2023/02/28 11:34:33;;;;;;;;;;;2.60;99.90;;;;;;4877886;29;19928;-64
2023/02/28 11:37:09;;;;;;;;;;;2.70;99.90;;;;;;4876417;29;19932;-65
2023/02/28 11:39:42;;;;;;;;;;;2.70;99.90;;;;;;4876985;29;19928;-65
2023/02/28 11:42:43;;;;;;;;;;;2.80;99.90;;;;;;4866292;29;19934;-65
2023/02/28 11:45:19;;;;;;;;;;;2.80;99.90;;;;;;4875363;29;19931;-64
2023/02/28 11:47:57;;;;;;;;;;;3.00;99.90;;;;;;4871871;29;19928;-65
2023/02/28 11:50:35;;;;;;;;;;;3.00;99.90;;;;;;4872662;29;20599;-64
2023/02/28 11:53:37;;;;;;;;;;;3.00;99.90;;;;;;4870655;29;20270;-64
2023/02/28 11:56:12;;;;;;;;;;;3.20;99.90;;;;;;4909037;29;19935;-64
2023/02/28 11:58:59;;;;;;;;;;;3.30;99.90;;;;;;4862785;29;20364;-64
2023/02/28 12:01:32;;;;;;;;;;;3.40;99.90;;;;;;4875832;29;19928;-66
2023/02/28 12:04:07;;;;;;;;;;;3.40;99.90;;;;;;4875334;29;19935;-64
2023/02/28 12:06:45;;;;;;;;;;;3.50;99.90;;;;;;4875668;29;20346;-65
2023/02/28 12:09:16;;;;;;;;;;;3.50;99.90;;;;;;4875842;29;19931;-64
2023/02/28 12:12:03;;;;;;;;;;;3.60;99.90;;;;;;4873456;29;19932;-64
2023/02/28 12:14:48;;;;;;;;;;;3.70;99.90;;;;;;4873838;29;19984;-63
2023/02/28 12:17:23;;;;;;;;;;;3.80;99.90;;;;;;4874348;29;20404;-64
2023/02/28 12:20:13;;;;;;;;;;;3.90;99.90;;;;;;4867194;29;19932;-66
2023/02/28 12:22:51;;;;;;;;;;;3.80;99.90;;;;;;4872488;29;19980;-64
2023/02/28 12:25:23;;;;;;;;;;;3.90;99.90;;;;;;4871960;29;19928;-64
2023/02/28 12:27:55;;;;;;;;;;;3.90;99.90;;;;;;4874180;29;19932;-64
2023/02/28 12:30:35;;;;;;;;;;;3.90;99.90;;;;;;4873036;29;19984;-64
2023/02/28 12:33:12;;;;;;;;;;;4.10;99.90;;;;;;4874114;29;20338;-65
2023/02/28 12:35:58;;;;;;;;;;;4.30;99.90;;;;;;4871534;29;20014;-66
2023/02/28 12:38:48;;;;;;;;;;;4.30;99.90;;;;;;4876767;29;19932;-64
2023/02/28 12:41:24;;;;;;;;;;;4.40;99.90;;;;;;4880208;29;19927;-64
2023/02/28 12:44:00;;;;;;;;;;;4.50;99.90;;;;;;4872696;29;19932;-64
2023/02/28 12:46:35;;;;;;;;;;;4.60;99.90;;;;;;4866796;29;19934;-64
2023/02/28 12:49:18;;;;;;;;;;;4.60;99.90;;;;;;4875912;29;19936;-65
2023/02/28 12:51:51;;;;;;;;;;;4.60;99.90;;;;;;4872007;29;19932;-64
2023/02/28 12:54:52;;;;;;;;;;;4.70;99.90;;;;;;4867819;29;19928;-64
2023/02/28 12:57:42;;;;;;;;;;;4.70;99.90;;;;;;4873133;29;20047;-64
2023/02/28 13:00:16;;;;;;;;;;;4.70;99.90;;;;;;4874366;29;19928;-65
2023/02/28 13:03:07;;;;;;;;;;;4.60;99.90;;;;;;4870586;29;20010;-65
2023/02/28 13:05:45;;;;;;;;;;;4.60;99.90;;;;;;4872775;29;19971;-66
2023/02/28 13:08:23;;;;;;;;;;;4.50;99.90;;;;;;4866246;29;19928;-64
2023/02/28 13:10:55;;;;;;;;;;;4.50;99.90;;;;;;4870324;29;20435;-64
2023/02/28 13:13:29;;;;;;;;;;;4.50;99.90;;;;;;4863242;29;19935;-64
2023/02/28 13:16:09;;;;;;;;;;;4.60;99.90;;;;;;4871773;29;19928;-64
2023/02/28 13:18:45;;;;;;;;;;;4.60;99.90;;;;;;4875337;29;19943;-64
2023/02/28 13:21:30;;;;;;;;;;;4.80;99.90;;;;;;4871484;29;19996;-64
2023/02/28 13:24:04;;;;;;;;;;;4.90;99.90;;;;;;4870776;29;20460;-64
2023/02/28 13:26:36;;;;;;;;;;;5.00;99.90;;;;;;4871864;29;19932;-64
2023/02/28 13:29:16;;;;;;;;;;;5.20;99.90;;;;;;4874235;29;19936;-64
2023/02/28 13:32:06;;;;;;;;;;;5.30;99.90;;;;;;4874692;29;19932;-64
2023/02/28 13:34:47;;;;;;;;;;;5.40;99.90;;;;;;4868512;29;19951;-65
2023/02/28 13:37:32;;;;;;;;;;;5.50;99.90;;;;;;4876437;29;20293;-65
2023/02/28 13:40:11;;;;;;;;;;;5.60;99.90;;;;;;4873827;29;19955;-64
2023/02/28 13:42:50;;;;;;;;;;;5.70;99.90;;;;;;4883480;29;20010;-64
2023/02/28 13:45:29;;;;;;;;;;;5.70;99.90;;;;;;4865866;29;19935;-64
2023/02/28 13:48:04;;;;;;;;;;;5.70;99.90;;;;;;4875297;29;19936;-64
2023/02/28 13:50:32;;;;;;;;;;;5.80;99.90;;;;;;4869575;29;19935;-64
2023/02/28 13:53:13;;;;;;;;;;;5.80;99.90;;;;;;4867214;29;19939;-64
2023/02/28 13:55:51;;;;;;;;;;;5.90;99.90;;;;;;4875194;29;19935;-64
2023/02/28 13:58:28;;;;;;;;;;;5.80;99.90;;;;;;4870132;29;19932;-65
2023/02/28 14:01:11;;;;;;;;;;;5.80;99.90;;;;;;4852854;29;19928;-64
2023/02/28 14:03:57;;;;;;;;;;;5.80;99.90;;;;;;4874682;29;19995;-64
2023/02/28 14:06:33;;;;;;;;;;;5.80;99.90;;;;;;4873500;29;19943;-64
2023/02/28 14:09:21;;;;;;;;;;;5.90;99.90;;;;;;4873398;29;19935;-64
2023/02/28 14:11:48;;;;;;;;;;;5.90;99.90;;;;;;4867142;29;19928;-64
2023/02/28 14:14:36;;;;;;;;;;;5.90;99.90;;;;;;4855431;29;19935;-64
2023/02/28 14:17:13;;;;;;;;;;;5.90;99.90;;;;;;4871811;29;19932;-64
2023/02/28 14:19:49;;;;;;;;;;;5.90;99.90;;;;;;4856890;29;19927;-64
2023/02/28 14:22:34;;;;;;;;;;;5.90;99.90;;;;;;4869987;29;20629;-64
2023/02/28 14:25:06;;;;;;;;;;;6.00;99.90;;;;;;4872881;29;20448;-64
2023/02/28 14:27:57;;;;;;;;;;;6.00;99.90;;;;;;4874716;29;19942;-64
2023/02/28 14:30:40;;;;;;;;;;;6.00;99.90;;;;;;4865170;29;19932;-65
2023/02/28 14:33:18;;;;;;;;;;;5.90;99.90;;;;;;4872384;29;20036;-64
2023/02/28 14:36:08;;;;;;;;;;;5.80;99.90;;;;;;4873844;29;20484;-65
2023/02/28 14:38:41;;;;;;;;;;;5.70;99.90;;;;;;4871502;29;19992;-64
2023/02/28 14:41:21;;;;;;;;;;;5.70;99.90;;;;;;4871257;29;19935;-64
2023/02/28 14:44:01;;;;;;;;;;;5.70;99.90;;;;;;4874375;29;19934;-64
2023/02/28 14:46:37;;;;;;;;;;;5.80;99.90;;;;;;4875853;29;19935;-64
2023/02/28 14:49:30;;;;;;;;;;;5.90;99.90;;;;;;4877615;29;19979;-64
2023/02/28 14:52:05;;;;;;;;;;;6.00;99.90;;;;;;4878248;29;19947;-64
2023/02/28 14:54:37;;;;;;;;;;;6.10;99.90;;;;;;4869463;29;19939;-64
2023/02/28 14:57:24;;;;;;;;;;;6.20;99.90;;;;;;4873049;29;19931;-64
2023/02/28 15:00:14;;;;;;;;;;;6.30;99.90;;;;;;4875171;29;19928;-64
2023/02/28 15:02:47;;;;;;;;;;;6.30;99.90;;;;;;4873313;29;19932;-64
2023/02/28 15:05:22;;;;;;;;;;;6.40;99.90;;;;;;4870683;29;19938;-64